sensor_id;sensor_type;location;lat;lon;timestamp;temperature;humidity
22795;DHT22;11564;50.920;11.612;2023-02-12T00:01:22;5.90;99.90
22795;DHT22;11564;50.920;11.612;2023-02-12T00:03:48;5.90;99.90
22795;DHT22;11564;50.920;11.612;2023-02-12T00:06:14;5.90;99.90
22795;DHT22;11564;50.920;11.612;2023-02-12T00:08:39;5.90;99.90
22795;DHT22;11564;50.920;11.612;2023-02-12T00:11:26;6.00;99.90
22795;DHT22;11564;50.920;11.612;2023-02-12T00:13:52;5.90;99.90
22795;DHT22;11564;50.920;11.612;2023-02-12T00:16:21;5.90;99.90
22795;DHT22;11564;50.920;11.612;2023-02-12T00:18:47;5.90;99.90
22795;DHT22;11564;50.920;11.612;2023-02-12T00:21:15;5.80;99.90
22795;DHT22;11564;50.920;11.612;2023-02-12T00:23:42;5.90;99.90
22795;DHT22;11564;50.920;11.612;2023-02-12T00:26:13;5.90;99.90
22795;DHT22;11564;50.920;11.612;2023-02-12T00:28:39;5.80;99.90
22795;DHT22;11564;50.920;11.612;2023-02-12T00:31:10;5.80;99.90
22795;DHT22;11564;50.920;11.612;2023-02-12T00:33:37;5.80;99.90
22795;DHT22;11564;50.920;11.612;2023-02-12T00:36:03;5.70;99.90
22795;DHT22;11564;50.920;11.612;2023-02-12T00:38:29;5.80;99.90
22795;DHT22;11564;50.920;11.612;2023-02-12T00:40:55;5.90;99.90
22795;DHT22;11564;50.920;11.612;2023-02-12T00:43:20;6.00;99.90
22795;DHT22;11564;50.920;11.612;2023-02-12T00:45:47;6.00;99.90
22795;DHT22;11564;50.920;11.612;2023-02-12T00:48:13;6.10;99.90
22795;DHT22;11564;50.920;11.612;2023-02-12T00:50:39;6.10;99.90
22795;DHT22;11564;50.920;11.612;2023-02-12T00:53:08;6.10;99.90
22795;DHT22;11564;50.920;11.612;2023-02-12T00:55:33;6.10;99.90
22795;DHT22;11564;50.920;11.612;2023-02-12T00:58:00;6.00;99.90
22795;DHT22;11564;50.920;11.612;2023-02-12T01:00:25;5.90;99.90
22795;DHT22;11564;50.920;11.612;2023-02-12T01:02:51;5.90;99.90
22795;DHT22;11564;50.920;11.612;2023-02-12T01:05:17;5.80;99.90
22795;DHT22;11564;50.920;11.612;2023-02-12T01:07:47;5.90;99.90
22795;DHT22;11564;50.920;11.612;2023-02-12T01:10:13;6.00;99.90
22795;DHT22;11564;50.920;11.612;2023-02-12T01:12:39;6.00;99.90
22795;DHT22;11564;50.920;11.612;2023-02-12T01:15:05;5.90;99.90
22795;DHT22;11564;50.920;11.612;2023-02-12T01:17:30;5.80;99.90
22795;DHT22;11564;50.920;11.612;2023-02-12T01:19:57;5.80;99.90
22795;DHT22;11564;50.920;11.612;2023-02-12T01:22:23;5.90;99.90
22795;DHT22;11564;50.920;11.612;2023-02-12T01:24:48;5.80;99.90
22795;DHT22;11564;50.920;11.612;2023-02-12T01:27:14;5.70;99.90
22795;DHT22;11564;50.920;11.612;2023-02-12T01:29:40;5.70;99.90
22795;DHT22;11564;50.920;11.612;2023-02-12T01:32:09;5.70;99.90
22795;DHT22;11564;50.920;11.612;2023-02-12T01:34:35;5.70;99.90
22795;DHT22;11564;50.920;11.612;2023-02-12T01:37:01;5.70;99.90
22795;DHT22;11564;50.920;11.612;2023-02-12T01:39:27;5.80;99.90
22795;DHT22;11564;50.920;11.612;2023-02-12T01:41:52;5.80;99.90
22795;DHT22;11564;50.920;11.612;2023-02-12T01:44:23;5.80;99.90
22795;DHT22;11564;50.920;11.612;2023-02-12T01:46:54;5.80;99.90
22795;DHT22;11564;50.920;11.612;2023-02-12T01:49:24;5.80;99.90
22795;DHT22;11564;50.920;11.612;2023-02-12T01:51:54;5.80;99.90
22795;DHT22;11564;50.920;11.612;2023-02-12T01:54:22;5.80;99.90
22795;DHT22;11564;50.920;11.612;2023-02-12T01:56:50;5.70;99.90
22795;DHT22;11564;50.920;11.612;2023-02-12T01:59:17;5.80;99.90
22795;DHT22;11564;50.920;11.612;2023-02-12T02:01:44;5.80;99.90
22795;DHT22;11564;50.920;11.612;2023-02-12T02:04:17;5.80;99.90
22795;DHT22;11564;50.920;11.612;2023-02-12T02:06:51;5.90;99.90
22795;DHT22;11564;50.920;11.612;2023-02-12T02:09:18;5.90;99.90
22795;DHT22;11564;50.920;11.612;2023-02-12T02:11:44;5.90;99.90
22795;DHT22;11564;50.920;11.612;2023-02-12T02:14:28;5.90;99.90
22795;DHT22;11564;50.920;11.612;2023-02-12T02:17:45;5.90;99.90
22795;DHT22;11564;50.920;11.612;2023-02-12T02:20:47;5.90;99.90
22795;DHT22;11564;50.920;11.612;2023-02-12T02:31:46;5.80;99.90
22795;DHT22;11564;50.920;11.612;2023-02-12T02:37:35;5.60;99.90
22795;DHT22;11564;50.920;11.612;2023-02-12T02:40:12;5.70;99.90
22795;DHT22;11564;50.920;11.612;2023-02-12T02:45:36;5.80;99.90
22795;DHT22;11564;50.920;11.612;2023-02-12T02:48:19;5.80;99.90
22795;DHT22;11564;50.920;11.612;2023-02-12T02:51:13;5.90;99.90
22795;DHT22;11564;50.920;11.612;2023-02-12T02:53:48;6.00;99.90
22795;DHT22;11564;50.920;11.612;2023-02-12T02:56:19;6.00;99.90
22795;DHT22;11564;50.920;11.612;2023-02-12T02:58:54;6.00;99.90
22795;DHT22;11564;50.920;11.612;2023-02-12T03:01:42;6.00;99.90
22795;DHT22;11564;50.920;11.612;2023-02-12T03:04:32;6.00;99.90
22795;DHT22;11564;50.920;11.612;2023-02-12T03:07:09;6.00;99.90
22795;DHT22;11564;50.920;11.612;2023-02-12T03:12:33;6.10;99.90
22795;DHT22;11564;50.920;11.612;2023-02-12T03:15:17;6.10;99.90
22795;DHT22;11564;50.920;11.612;2023-02-12T03:17:47;6.10;99.90
22795;DHT22;11564;50.920;11.612;2023-02-12T03:20:18;6.10;99.90
22795;DHT22;11564;50.920;11.612;2023-02-12T03:23:09;6.10;99.90
22795;DHT22;11564;50.920;11.612;2023-02-12T03:28:28;6.10;99.90
22795;DHT22;11564;50.920;11.612;2023-02-12T03:34:24;6.20;99.90
22795;DHT22;11564;50.920;11.612;2023-02-12T03:37:00;6.20;99.90
22795;DHT22;11564;50.920;11.612;2023-02-12T03:50:17;6.10;99.90
22795;DHT22;11564;50.920;11.612;2023-02-12T03:52:45;6.20;99.90
22795;DHT22;11564;50.920;11.612;2023-02-12T03:55:11;6.20;99.90
22795;DHT22;11564;50.920;11.612;2023-02-12T03:57:41;6.10;99.90
22795;DHT22;11564;50.920;11.612;2023-02-12T04:00:12;6.20;99.90
22795;DHT22;11564;50.920;11.612;2023-02-12T04:02:38;6.20;99.90
22795;DHT22;11564;50.920;11.612;2023-02-12T04:05:14;6.20;99.90
22795;DHT22;11564;50.920;11.612;2023-02-12T04:07:40;6.20;99.90
22795;DHT22;11564;50.920;11.612;2023-02-12T04:10:07;6.20;99.90
22795;DHT22;11564;50.920;11.612;2023-02-12T04:12:39;6.20;99.90
22795;DHT22;11564;50.920;11.612;2023-02-12T04:18:00;6.10;99.90
22795;DHT22;11564;50.920;11.612;2023-02-12T04:23:21;6.00;99.90
22795;DHT22;11564;50.920;11.612;2023-02-12T04:26:17;6.10;99.90
22795;DHT22;11564;50.920;11.612;2023-02-12T04:31:42;6.10;99.90
22795;DHT22;11564;50.920;11.612;2023-02-12T04:37:22;6.20;99.90
22795;DHT22;11564;50.920;11.612;2023-02-12T04:39:51;6.20;99.90
22795;DHT22;11564;50.920;11.612;2023-02-12T04:42:17;6.10;99.90
22795;DHT22;11564;50.920;11.612;2023-02-12T04:44:43;6.10;99.90
22795;DHT22;11564;50.920;11.612;2023-02-12T04:47:13;6.20;99.90
22795;DHT22;11564;50.920;11.612;2023-02-12T04:49:39;6.10;99.90
22795;DHT22;11564;50.920;11.612;2023-02-12T04:52:05;6.10;99.90
22795;DHT22;11564;50.920;11.612;2023-02-12T04:54:31;6.10;99.90
22795;DHT22;11564;50.920;11.612;2023-02-12T04:56:56;6.10;99.90
22795;DHT22;11564;50.920;11.612;2023-02-12T04:59:22;6.10;99.90
22795;DHT22;11564;50.920;11.612;2023-02-12T05:01:47;6.10;99.90
22795;DHT22;11564;50.920;11.612;2023-02-12T05:04:14;6.10;99.90
22795;DHT22;11564;50.920;11.612;2023-02-12T05:06:41;6.00;99.90
22795;DHT22;11564;50.920;11.612;2023-02-12T05:09:11;6.00;99.90
22795;DHT22;11564;50.920;11.612;2023-02-12T05:11:37;6.00;99.90
22795;DHT22;11564;50.920;11.612;2023-02-12T05:14:03;6.10;99.90
22795;DHT22;11564;50.920;11.612;2023-02-12T05:16:28;6.00;99.90
22795;DHT22;11564;50.920;11.612;2023-02-12T05:18:54;6.10;99.90
22795;DHT22;11564;50.920;11.612;2023-02-12T05:21:19;6.00;99.90
22795;DHT22;11564;50.920;11.612;2023-02-12T05:23:45;6.10;99.90
22795;DHT22;11564;50.920;11.612;2023-02-12T05:26:19;6.10;99.90
22795;DHT22;11564;50.920;11.612;2023-02-12T05:28:45;6.00;99.90
22795;DHT22;11564;50.920;11.612;2023-02-12T05:31:14;6.00;99.90
22795;DHT22;11564;50.920;11.612;2023-02-12T05:33:44;5.90;99.90
22795;DHT22;11564;50.920;11.612;2023-02-12T05:36:13;5.90;99.90
22795;DHT22;11564;50.920;11.612;2023-02-12T05:38:39;5.90;99.90
22795;DHT22;11564;50.920;11.612;2023-02-12T05:41:10;6.00;99.90
22795;DHT22;11564;50.920;11.612;2023-02-12T05:43:36;6.00;99.90
22795;DHT22;11564;50.920;11.612;2023-02-12T05:46:03;6.00;99.90
22795;DHT22;11564;50.920;11.612;2023-02-12T05:48:30;6.00;99.90
22795;DHT22;11564;50.920;11.612;2023-02-12T05:51:07;6.00;99.90
22795;DHT22;11564;50.920;11.612;2023-02-12T05:53:33;6.00;99.90
22795;DHT22;11564;50.920;11.612;2023-02-12T05:58:32;6.10;99.90
22795;DHT22;11564;50.920;11.612;2023-02-12T06:00:58;6.00;99.90
22795;DHT22;11564;50.920;11.612;2023-02-12T06:03:23;6.00;99.90
22795;DHT22;11564;50.920;11.612;2023-02-12T06:05:50;6.00;99.90
22795;DHT22;11564;50.920;11.612;2023-02-12T06:08:15;6.00;99.90
22795;DHT22;11564;50.920;11.612;2023-02-12T06:10:41;5.90;99.90
22795;DHT22;11564;50.920;11.612;2023-02-12T06:13:06;6.00;99.90
22795;DHT22;11564;50.920;11.612;2023-02-12T06:15:35;6.00;99.90
22795;DHT22;11564;50.920;11.612;2023-02-12T06:18:00;6.00;99.90
22795;DHT22;11564;50.920;11.612;2023-02-12T06:20:26;6.00;99.90
22795;DHT22;11564;50.920;11.612;2023-02-12T06:22:52;6.00;99.90
22795;DHT22;11564;50.920;11.612;2023-02-12T06:25:17;6.00;99.90
22795;DHT22;11564;50.920;11.612;2023-02-12T06:27:43;6.10;99.90
22795;DHT22;11564;50.920;11.612;2023-02-12T06:30:09;6.10;99.90
22795;DHT22;11564;50.920;11.612;2023-02-12T06:32:35;6.10;99.90
22795;DHT22;11564;50.920;11.612;2023-02-12T06:35:00;6.20;99.90
22795;DHT22;11564;50.920;11.612;2023-02-12T06:37:26;6.10;99.90
22795;DHT22;11564;50.920;11.612;2023-02-12T06:39:52;6.10;99.90
22795;DHT22;11564;50.920;11.612;2023-02-12T06:42:17;6.20;99.90
22795;DHT22;11564;50.920;11.612;2023-02-12T06:44:43;6.20;99.90
22795;DHT22;11564;50.920;11.612;2023-02-12T06:47:09;6.20;99.90
22795;DHT22;11564;50.920;11.612;2023-02-12T06:49:35;6.20;99.90
22795;DHT22;11564;50.920;11.612;2023-02-12T06:52:01;6.20;99.90
22795;DHT22;11564;50.920;11.612;2023-02-12T06:54:26;6.20;99.90
22795;DHT22;11564;50.920;11.612;2023-02-12T06:56:52;6.20;99.90
22795;DHT22;11564;50.920;11.612;2023-02-12T06:59:17;6.30;99.90
22795;DHT22;11564;50.920;11.612;2023-02-12T07:01:43;6.20;99.90
22795;DHT22;11564;50.920;11.612;2023-02-12T07:04:09;6.20;99.90
22795;DHT22;11564;50.920;11.612;2023-02-12T07:06:35;6.30;99.90
22795;DHT22;11564;50.920;11.612;2023-02-12T07:09:03;6.20;99.90
22795;DHT22;11564;50.920;11.612;2023-02-12T07:11:31;6.20;99.90
22795;DHT22;11564;50.920;11.612;2023-02-12T07:13:57;6.20;99.90
22795;DHT22;11564;50.920;11.612;2023-02-12T07:16:23;6.20;99.90
22795;DHT22;11564;50.920;11.612;2023-02-12T07:18:49;6.20;99.90
22795;DHT22;11564;50.920;11.612;2023-02-12T07:21:16;6.30;99.90
22795;DHT22;11564;50.920;11.612;2023-02-12T07:23:49;6.30;99.90
22795;DHT22;11564;50.920;11.612;2023-02-12T07:26:16;6.30;99.90
22795;DHT22;11564;50.920;11.612;2023-02-12T07:28:42;6.30;99.90
22795;DHT22;11564;50.920;11.612;2023-02-12T07:31:17;6.20;99.90
22795;DHT22;11564;50.920;11.612;2023-02-12T07:33:43;6.30;99.90
22795;DHT22;11564;50.920;11.612;2023-02-12T07:36:12;6.30;99.90
22795;DHT22;11564;50.920;11.612;2023-02-12T07:38:39;6.30;99.90
22795;DHT22;11564;50.920;11.612;2023-02-12T07:41:17;6.30;99.90
22795;DHT22;11564;50.920;11.612;2023-02-12T07:43:44;6.30;99.90
22795;DHT22;11564;50.920;11.612;2023-02-12T07:46:18;6.30;99.90
22795;DHT22;11564;50.920;11.612;2023-02-12T07:48:45;6.30;99.90
22795;DHT22;11564;50.920;11.612;2023-02-12T07:51:14;6.30;99.90
22795;DHT22;11564;50.920;11.612;2023-02-12T07:53:40;6.40;99.90
22795;DHT22;11564;50.920;11.612;2023-02-12T07:56:17;6.50;99.90
22795;DHT22;11564;50.920;11.612;2023-02-12T07:58:44;6.50;99.90
22795;DHT22;11564;50.920;11.612;2023-02-12T08:01:24;6.40;99.90
22795;DHT22;11564;50.920;11.612;2023-02-12T08:03:54;6.50;99.90
22795;DHT22;11564;50.920;11.612;2023-02-12T08:06:24;6.50;99.90
22795;DHT22;11564;50.920;11.612;2023-02-12T08:08:51;6.60;99.90
22795;DHT22;11564;50.920;11.612;2023-02-12T08:11:17;6.60;99.90
22795;DHT22;11564;50.920;11.612;2023-02-12T08:13:43;6.70;99.90
22795;DHT22;11564;50.920;11.612;2023-02-12T08:16:21;6.70;99.90
22795;DHT22;11564;50.920;11.612;2023-02-12T08:18:47;6.70;99.90
22795;DHT22;11564;50.920;11.612;2023-02-12T08:21:15;6.80;99.90
22795;DHT22;11564;50.920;11.612;2023-02-12T08:23:43;6.90;99.90
22795;DHT22;11564;50.920;11.612;2023-02-12T08:26:13;7.00;99.90
22795;DHT22;11564;50.920;11.612;2023-02-12T08:28:48;7.00;99.90
22795;DHT22;11564;50.920;11.612;2023-02-12T08:31:16;7.00;99.90
22795;DHT22;11564;50.920;11.612;2023-02-12T08:33:43;7.10;99.90
22795;DHT22;11564;50.920;11.612;2023-02-12T08:36:12;7.20;99.90
22795;DHT22;11564;50.920;11.612;2023-02-12T08:38:39;7.10;99.90
22795;DHT22;11564;50.920;11.612;2023-02-12T08:41:10;7.10;99.90
22795;DHT22;11564;50.920;11.612;2023-02-12T08:43:36;7.00;99.90
22795;DHT22;11564;50.920;11.612;2023-02-12T08:46:14;7.10;99.90
22795;DHT22;11564;50.920;11.612;2023-02-12T08:48:41;7.00;99.90
22795;DHT22;11564;50.920;11.612;2023-02-12T08:51:18;7.00;99.90
22795;DHT22;11564;50.920;11.612;2023-02-12T08:53:45;7.10;99.90
22795;DHT22;11564;50.920;11.612;2023-02-12T08:56:12;7.20;99.90
22795;DHT22;11564;50.920;11.612;2023-02-12T08:58:38;7.30;99.90
22795;DHT22;11564;50.920;11.612;2023-02-12T09:01:09;7.40;99.90
22795;DHT22;11564;50.920;11.612;2023-02-12T09:03:35;7.50;99.90
22795;DHT22;11564;50.920;11.612;2023-02-12T09:06:05;7.60;99.90
22795;DHT22;11564;50.920;11.612;2023-02-12T09:08:31;7.60;99.90
22795;DHT22;11564;50.920;11.612;2023-02-12T09:10:57;7.60;99.90
22795;DHT22;11564;50.920;11.612;2023-02-12T09:13:23;7.70;99.90
22795;DHT22;11564;50.920;11.612;2023-02-12T09:15:48;7.70;99.90
22795;DHT22;11564;50.920;11.612;2023-02-12T09:18:14;7.70;99.90
22795;DHT22;11564;50.920;11.612;2023-02-12T09:20:42;7.70;99.90
22795;DHT22;11564;50.920;11.612;2023-02-12T09:23:10;7.80;99.90
22795;DHT22;11564;50.920;11.612;2023-02-12T09:25:44;7.50;99.90
22795;DHT22;11564;50.920;11.612;2023-02-12T09:28:11;7.60;99.90
22795;DHT22;11564;50.920;11.612;2023-02-12T09:30:37;7.60;99.90
22795;DHT22;11564;50.920;11.612;2023-02-12T09:33:04;7.70;99.90
22795;DHT22;11564;50.920;11.612;2023-02-12T09:35:33;7.60;99.90
22795;DHT22;11564;50.920;11.612;2023-02-12T09:38:00;7.50;99.90
22795;DHT22;11564;50.920;11.612;2023-02-12T09:46:15;7.70;99.90
22795;DHT22;11564;50.920;11.612;2023-02-12T09:49:17;7.30;99.90
22795;DHT22;11564;50.920;11.612;2023-02-12T09:51:48;7.30;99.90
22795;DHT22;11564;50.920;11.612;2023-02-12T09:54:18;7.40;99.90
22795;DHT22;11564;50.920;11.612;2023-02-12T09:56:57;7.50;99.90
22795;DHT22;11564;50.920;11.612;2023-02-12T09:59:44;7.20;99.90
22795;DHT22;11564;50.920;11.612;2023-02-12T10:02:19;7.20;99.90
22795;DHT22;11564;50.920;11.612;2023-02-12T10:04:46;7.30;99.90
22795;DHT22;11564;50.920;11.612;2023-02-12T10:15:44;7.30;99.90
22795;DHT22;11564;50.920;11.612;2023-02-12T10:21:23;7.40;99.90
22795;DHT22;11564;50.920;11.612;2023-02-12T10:29:32;7.70;99.90
22795;DHT22;11564;50.920;11.612;2023-02-12T10:32:04;7.60;99.90
22795;DHT22;11564;50.920;11.612;2023-02-12T10:34:34;7.50;99.90
22795;DHT22;11564;50.920;11.612;2023-02-12T10:37:25;7.70;99.90
22795;DHT22;11564;50.920;11.612;2023-02-12T10:39:57;7.70;99.90
22795;DHT22;11564;50.920;11.612;2023-02-12T10:42:39;7.80;99.90
22795;DHT22;11564;50.920;11.612;2023-02-12T10:45:10;8.00;99.90
22795;DHT22;11564;50.920;11.612;2023-02-12T10:47:36;7.90;99.90
22795;DHT22;11564;50.920;11.612;2023-02-12T10:50:27;8.00;99.90
22795;DHT22;11564;50.920;11.612;2023-02-12T10:53:00;8.00;99.90
22795;DHT22;11564;50.920;11.612;2023-02-12T10:55:35;8.00;99.90
22795;DHT22;11564;50.920;11.612;2023-02-12T10:58:04;8.10;99.90
22795;DHT22;11564;50.920;11.612;2023-02-12T11:00:41;8.10;99.90
22795;DHT22;11564;50.920;11.612;2023-02-12T11:05:38;8.10;99.90
22795;DHT22;11564;50.920;11.612;2023-02-12T11:08:04;8.20;99.90
22795;DHT22;11564;50.920;11.612;2023-02-12T11:10:36;8.50;99.90
22795;DHT22;11564;50.920;11.612;2023-02-12T11:13:03;8.70;99.90
22795;DHT22;11564;50.920;11.612;2023-02-12T11:15:46;8.80;99.90
22795;DHT22;11564;50.920;11.612;2023-02-12T11:18:24;9.10;99.90
22795;DHT22;11564;50.920;11.612;2023-02-12T11:21:05;9.30;99.90
22795;DHT22;11564;50.920;11.612;2023-02-12T11:23:36;9.20;99.90
22795;DHT22;11564;50.920;11.612;2023-02-12T11:26:28;9.20;99.90
22795;DHT22;11564;50.920;11.612;2023-02-12T11:29:00;9.20;99.90
22795;DHT22;11564;50.920;11.612;2023-02-12T11:31:28;9.20;99.90
22795;DHT22;11564;50.920;11.612;2023-02-12T11:36:29;8.90;99.90
22795;DHT22;11564;50.920;11.612;2023-02-12T11:38:57;8.90;99.90
22795;DHT22;11564;50.920;11.612;2023-02-12T11:41:35;8.90;99.90
22795;DHT22;11564;50.920;11.612;2023-02-12T11:44:16;8.90;99.90
22795;DHT22;11564;50.920;11.612;2023-02-12T11:46:52;8.90;99.90
22795;DHT22;11564;50.920;11.612;2023-02-12T11:49:28;8.80;99.90
22795;DHT22;11564;50.920;11.612;2023-02-12T11:51:56;8.40;99.90
22795;DHT22;11564;50.920;11.612;2023-02-12T11:54:25;8.50;99.90
22795;DHT22;11564;50.920;11.612;2023-02-12T11:56:52;8.30;99.90
22795;DHT22;11564;50.920;11.612;2023-02-12T11:59:40;8.50;99.90
22795;DHT22;11564;50.920;11.612;2023-02-12T12:02:20;8.60;99.90
22795;DHT22;11564;50.920;11.612;2023-02-12T12:04:49;8.60;99.90
22795;DHT22;11564;50.920;11.612;2023-02-12T12:07:21;8.50;99.90
22795;DHT22;11564;50.920;11.612;2023-02-12T12:09:59;8.60;99.90
22795;DHT22;11564;50.920;11.612;2023-02-12T12:15:06;8.50;99.90
22795;DHT22;11564;50.920;11.612;2023-02-12T12:17:58;8.40;99.90
22795;DHT22;11564;50.920;11.612;2023-02-12T12:23:39;8.10;99.90
22795;DHT22;11564;50.920;11.612;2023-02-12T12:26:12;8.00;99.90
22795;DHT22;11564;50.920;11.612;2023-02-12T12:29:02;8.30;99.90
22795;DHT22;11564;50.920;11.612;2023-02-12T12:31:38;8.50;99.90
22795;DHT22;11564;50.920;11.612;2023-02-12T12:34:08;8.60;99.90
22795;DHT22;11564;50.920;11.612;2023-02-12T12:55:51;9.20;99.90
22795;DHT22;11564;50.920;11.612;2023-02-12T13:12:29;9.50;99.90
22795;DHT22;11564;50.920;11.612;2023-02-12T13:18:08;9.30;99.90
22795;DHT22;11564;50.920;11.612;2023-02-12T13:23:13;9.50;99.90
22795;DHT22;11564;50.920;11.612;2023-02-12T13:26:11;9.60;99.90
22795;DHT22;11564;50.920;11.612;2023-02-12T13:28:47;9.10;99.90
22795;DHT22;11564;50.920;11.612;2023-02-12T13:31:17;8.90;99.90
22795;DHT22;11564;50.920;11.612;2023-02-12T13:33:52;8.90;99.90
22795;DHT22;11564;50.920;11.612;2023-02-12T13:36:19;8.90;99.90
22795;DHT22;11564;50.920;11.612;2023-02-12T13:39:11;8.80;99.90
22795;DHT22;11564;50.920;11.612;2023-02-12T13:41:46;8.80;99.90
22795;DHT22;11564;50.920;11.612;2023-02-12T13:44:19;8.70;99.90
22795;DHT22;11564;50.920;11.612;2023-02-12T13:49:28;8.70;99.90
22795;DHT22;11564;50.920;11.612;2023-02-12T13:52:03;8.90;99.90
22795;DHT22;11564;50.920;11.612;2023-02-12T13:54:52;9.10;99.90
22795;DHT22;11564;50.920;11.612;2023-02-12T13:57:20;9.10;99.90
22795;DHT22;11564;50.920;11.612;2023-02-12T13:59:48;8.70;99.90
22795;DHT22;11564;50.920;11.612;2023-02-12T14:05:14;8.70;99.90
22795;DHT22;11564;50.920;11.612;2023-02-12T14:07:44;8.70;99.90
22795;DHT22;11564;50.920;11.612;2023-02-12T14:12:46;8.40;99.90
22795;DHT22;11564;50.920;11.612;2023-02-12T14:15:31;8.30;99.90
22795;DHT22;11564;50.920;11.612;2023-02-12T14:20:29;8.30;99.90
22795;DHT22;11564;50.920;11.612;2023-02-12T14:25:31;8.30;99.90
22795;DHT22;11564;50.920;11.612;2023-02-12T14:28:19;8.40;99.90
22795;DHT22;11564;50.920;11.612;2023-02-12T14:33:40;8.30;99.90
22795;DHT22;11564;50.920;11.612;2023-02-12T14:41:32;8.50;99.90
22795;DHT22;11564;50.920;11.612;2023-02-12T14:49:30;8.80;99.90
22795;DHT22;11564;50.920;11.612;2023-02-12T14:54:44;8.80;99.90
22795;DHT22;11564;50.920;11.612;2023-02-12T14:57:31;8.80;99.90
22795;DHT22;11564;50.920;11.612;2023-02-12T15:00:18;8.60;99.90
22795;DHT22;11564;50.920;11.612;2023-02-12T15:03:26;8.40;99.90
22795;DHT22;11564;50.920;11.612;2023-02-12T15:08:57;8.20;99.90
22795;DHT22;11564;50.920;11.612;2023-02-12T15:11:38;8.10;99.90
22795;DHT22;11564;50.920;11.612;2023-02-12T15:14:21;8.00;99.90
22795;DHT22;11564;50.920;11.612;2023-02-12T15:17:01;8.10;99.90
22795;DHT22;11564;50.920;11.612;2023-02-12T15:19:40;8.10;99.90
22795;DHT22;11564;50.920;11.612;2023-02-12T15:22:23;8.20;99.90
22795;DHT22;11564;50.920;11.612;2023-02-12T15:24:49;8.20;99.90
22795;DHT22;11564;50.920;11.612;2023-02-12T15:27:16;8.30;99.90
22795;DHT22;11564;50.920;11.612;2023-02-12T15:29:49;8.30;99.90
22795;DHT22;11564;50.920;11.612;2023-02-12T15:32:22;8.40;99.90
22795;DHT22;11564;50.920;11.612;2023-02-12T15:34:50;8.40;99.90
22795;DHT22;11564;50.920;11.612;2023-02-12T15:37:24;8.40;99.90
22795;DHT22;11564;50.920;11.612;2023-02-12T15:39:52;8.40;99.90
22795;DHT22;11564;50.920;11.612;2023-02-12T15:42:24;8.40;99.90
22795;DHT22;11564;50.920;11.612;2023-02-12T15:44:50;8.40;99.90
22795;DHT22;11564;50.920;11.612;2023-02-12T15:47:21;8.40;99.90
22795;DHT22;11564;50.920;11.612;2023-02-12T15:49:51;8.40;99.90
22795;DHT22;11564;50.920;11.612;2023-02-12T15:52:29;8.40;99.90
22795;DHT22;11564;50.920;11.612;2023-02-12T15:54:59;8.40;99.90
22795;DHT22;11564;50.920;11.612;2023-02-12T15:57:25;8.30;99.90
22795;DHT22;11564;50.920;11.612;2023-02-12T15:59:56;8.20;99.90
22795;DHT22;11564;50.920;11.612;2023-02-12T16:02:29;8.20;99.90
22795;DHT22;11564;50.920;11.612;2023-02-12T16:04:57;8.20;99.90
22795;DHT22;11564;50.920;11.612;2023-02-12T16:07:24;8.20;99.90
22795;DHT22;11564;50.920;11.612;2023-02-12T16:09:51;8.20;99.90
22795;DHT22;11564;50.920;11.612;2023-02-12T16:12:20;8.20;99.90
22795;DHT22;11564;50.920;11.612;2023-02-12T16:14:53;8.20;99.90
22795;DHT22;11564;50.920;11.612;2023-02-12T16:17:25;8.10;99.90
22795;DHT22;11564;50.920;11.612;2023-02-12T16:22:42;8.10;99.90
22795;DHT22;11564;50.920;11.612;2023-02-12T16:25:16;8.00;99.90
22795;DHT22;11564;50.920;11.612;2023-02-12T16:30:34;8.00;99.90
22795;DHT22;11564;50.920;11.612;2023-02-12T16:33:04;7.90;99.90
22795;DHT22;11564;50.920;11.612;2023-02-12T16:35:33;7.90;99.90
22795;DHT22;11564;50.920;11.612;2023-02-12T16:38:37;7.90;99.90
22795;DHT22;11564;50.920;11.612;2023-02-12T16:46:16;7.80;99.90
22795;DHT22;11564;50.920;11.612;2023-02-12T16:48:48;7.80;99.90
22795;DHT22;11564;50.920;11.612;2023-02-12T16:51:31;7.80;99.90
22795;DHT22;11564;50.920;11.612;2023-02-12T16:54:00;7.70;99.90
22795;DHT22;11564;50.920;11.612;2023-02-12T16:56:29;7.80;99.90
22795;DHT22;11564;50.920;11.612;2023-02-12T16:58:57;7.80;99.90
22795;DHT22;11564;50.920;11.612;2023-02-12T17:01:32;7.80;99.90
22795;DHT22;11564;50.920;11.612;2023-02-12T17:03:59;7.70;99.90
22795;DHT22;11564;50.920;11.612;2023-02-12T17:06:28;7.60;99.90
22795;DHT22;11564;50.920;11.612;2023-02-12T17:08:55;7.60;99.90
22795;DHT22;11564;50.920;11.612;2023-02-12T17:11:21;7.70;99.90
22795;DHT22;11564;50.920;11.612;2023-02-12T17:13:49;7.50;99.90
22795;DHT22;11564;50.920;11.612;2023-02-12T17:16:16;7.50;99.90
22795;DHT22;11564;50.920;11.612;2023-02-12T17:18:42;7.50;99.90
22795;DHT22;11564;50.920;11.612;2023-02-12T17:21:20;7.50;99.90
22795;DHT22;11564;50.920;11.612;2023-02-12T17:23:46;7.50;99.90
22795;DHT22;11564;50.920;11.612;2023-02-12T17:26:11;7.40;99.90
22795;DHT22;11564;50.920;11.612;2023-02-12T17:28:38;7.40;99.90
22795;DHT22;11564;50.920;11.612;2023-02-12T17:31:07;7.40;99.90
22795;DHT22;11564;50.920;11.612;2023-02-12T17:33:32;7.40;99.90
22795;DHT22;11564;50.920;11.612;2023-02-12T17:35:59;7.30;99.90
22795;DHT22;11564;50.920;11.612;2023-02-12T17:38:24;7.30;99.90
22795;DHT22;11564;50.920;11.612;2023-02-12T17:40:50;7.20;99.90
22795;DHT22;11564;50.920;11.612;2023-02-12T17:43:16;7.20;99.90
22795;DHT22;11564;50.920;11.612;2023-02-12T17:45:42;7.20;99.90
22795;DHT22;11564;50.920;11.612;2023-02-12T17:48:09;7.10;99.90
22795;DHT22;11564;50.920;11.612;2023-02-12T17:50:36;7.20;99.90
22795;DHT22;11564;50.920;11.612;2023-02-12T17:53:01;7.20;99.90
22795;DHT22;11564;50.920;11.612;2023-02-12T17:55:27;7.20;99.90
22795;DHT22;11564;50.920;11.612;2023-02-12T17:57:53;7.30;99.90
22795;DHT22;11564;50.920;11.612;2023-02-12T18:00:20;7.20;99.90
22795;DHT22;11564;50.920;11.612;2023-02-12T18:02:46;7.30;99.90
22795;DHT22;11564;50.920;11.612;2023-02-12T18:05:12;7.30;99.90
22795;DHT22;11564;50.920;11.612;2023-02-12T18:07:37;7.30;99.90
22795;DHT22;11564;50.920;11.612;2023-02-12T18:10:04;7.30;99.90
22795;DHT22;11564;50.920;11.612;2023-02-12T18:12:31;7.10;99.90
22795;DHT22;11564;50.920;11.612;2023-02-12T18:14:58;7.20;99.90
22795;DHT22;11564;50.920;11.612;2023-02-12T18:17:24;7.20;99.90
22795;DHT22;11564;50.920;11.612;2023-02-12T18:19:49;7.20;99.90
22795;DHT22;11564;50.920;11.612;2023-02-12T18:22:15;7.10;99.90
22795;DHT22;11564;50.920;11.612;2023-02-12T18:24:41;7.10;99.90
22795;DHT22;11564;50.920;11.612;2023-02-12T18:27:08;7.10;99.90
22795;DHT22;11564;50.920;11.612;2023-02-12T18:29:34;7.00;99.90
22795;DHT22;11564;50.920;11.612;2023-02-12T18:31:59;6.90;99.90
22795;DHT22;11564;50.920;11.612;2023-02-12T18:34:25;6.90;99.90
22795;DHT22;11564;50.920;11.612;2023-02-12T18:36:51;6.90;99.90